Time;durP1;ratioP1;P1;durP2;ratioP2;P2;SDS_P1;SDS_P2;PMS_P1;PMS_P2;Temp;Humidity;BMP_temperature;BMP_pressure;BME280_temperature;BME280_humidity;BME280_pressure;Samples;Min_cycle;Max_cycle;Signal;HPM_P1;HPM_P2
2023/12/14 00:00:14;;;;;;;17.35;9.68;;;5.50;99.90;;;;;;5072530;28;20253;-59
2023/12/14 00:02:42;;;;;;;15.05;9.45;;;5.50;99.90;;;;;;5072139;28;20262;-60
2023/12/14 00:05:10;;;;;;;12.40;9.35;;;5.50;99.90;;;;;;5064139;28;20650;-60
2023/12/14 00:07:38;;;;;;;18.95;9.15;;;5.40;99.90;;;;;;5072269;28;20290;-60
2023/12/14 00:10:07;;;;;;;12.38;8.75;;;5.40;99.90;;;;;;5072529;28;20315;-60
2023/12/14 00:12:36;;;;;;;10.13;7.82;;;5.30;99.90;;;;;;5072934;28;20278;-60
2023/12/14 00:15:05;;;;;;;11.90;8.23;;;5.30;99.90;;;;;;5072631;28;20206;-60
2023/12/14 00:17:33;;;;;;;12.95;8.43;;;5.20;99.90;;;;;;5072901;28;20614;-60
2023/12/14 00:20:01;;;;;;;10.68;8.35;;;5.20;99.90;;;;;;5072869;28;20229;-60
2023/12/14 00:22:29;;;;;;;13.57;9.02;;;5.10;99.90;;;;;;5072629;28;20241;-60
2023/12/14 00:24:56;;;;;;;13.60;9.38;;;5.10;99.90;;;;;;5073352;28;20555;-60
2023/12/14 00:27:24;;;;;;;10.68;7.50;;;5.10;99.90;;;;;;5073005;28;20205;-59
2023/12/14 00:29:54;;;;;;;11.43;8.52;;;5.10;99.90;;;;;;5073515;28;20659;-60
2023/12/14 00:32:21;;;;;;;9.85;7.68;;;5.00;99.90;;;;;;5073268;28;20259;-60
2023/12/14 00:34:49;;;;;;;14.40;9.70;;;5.00;99.90;;;;;;5073018;28;20244;-60
2023/12/14 00:37:17;;;;;;;13.43;8.95;;;5.00;99.90;;;;;;5071120;28;20198;-60
2023/12/14 00:39:45;;;;;;;14.95;8.30;;;4.90;99.90;;;;;;5070753;28;20290;-60
2023/12/14 00:42:13;;;;;;;13.00;7.30;;;4.90;99.90;;;;;;5070821;28;20303;-60
2023/12/14 00:44:41;;;;;;;14.43;8.10;;;4.90;99.90;;;;;;5070861;28;20209;-60
2023/12/14 00:47:10;;;;;;;16.05;8.55;;;4.90;99.90;;;;;;5070626;28;20558;-60
2023/12/14 00:49:38;;;;;;;18.77;10.23;;;4.90;99.90;;;;;;5070541;28;20611;-60
2023/12/14 00:52:06;;;;;;;19.25;9.38;;;4.90;99.90;;;;;;5070854;28;20233;-60
2023/12/14 00:54:34;;;;;;;17.90;10.40;;;4.90;99.90;;;;;;5070595;28;20252;-60
2023/12/14 00:57:02;;;;;;;12.60;9.13;;;4.90;99.90;;;;;;5070488;28;20663;-60
2023/12/14 00:59:30;;;;;;;20.23;10.57;;;4.90;99.90;;;;;;5070370;28;20226;-60
2023/12/14 01:01:58;;;;;;;19.30;10.32;;;4.90;99.90;;;;;;5073555;28;20290;-60
2023/12/14 01:04:27;;;;;;;17.05;11.23;;;4.80;99.90;;;;;;5073743;28;20217;-60
2023/12/14 01:06:55;;;;;;;14.55;9.93;;;4.80;99.90;;;;;;5073918;28;20687;-60
2023/12/14 01:09:23;;;;;;;16.83;9.82;;;4.80;99.90;;;;;;5073748;28;20229;-60
2023/12/14 01:11:51;;;;;;;13.15;8.98;;;4.80;99.90;;;;;;5074108;28;20270;-59
2023/12/14 01:14:19;;;;;;;9.77;7.60;;;4.80;99.90;;;;;;5072235;28;20228;-60
2023/12/14 01:16:47;;;;;;;8.55;7.57;;;4.70;99.90;;;;;;5073756;28;20247;-60
2023/12/14 01:19:14;;;;;;;14.20;8.68;;;4.70;99.90;;;;;;5073592;28;20198;-60
2023/12/14 01:21:44;;;;;;;15.25;8.02;;;4.70;99.90;;;;;;5073881;28;20706;-60
2023/12/14 01:24:12;;;;;;;12.30;8.18;;;4.70;99.90;;;;;;5073627;28;20241;-60
2023/12/14 01:26:39;;;;;;;10.70;8.13;;;4.70;99.90;;;;;;5073793;28;20249;-60
2023/12/14 01:29:07;;;;;;;9.85;7.68;;;4.70;99.90;;;;;;5073344;28;20307;-59
2023/12/14 01:31:35;;;;;;;12.45;8.40;;;4.60;99.90;;;;;;5073918;28;20201;-60
2023/12/14 01:34:03;;;;;;;14.18;8.25;;;4.60;99.90;;;;;;5067199;28;20245;-59
2023/12/14 01:36:31;;;;;;;14.38;8.07;;;4.60;99.90;;;;;;5071548;28;20212;-60
2023/12/14 01:39:01;;;;;;;13.60;8.63;;;4.60;99.90;;;;;;5071134;28;20657;-60
2023/12/14 01:41:28;;;;;;;15.75;8.00;;;4.60;99.90;;;;;;5067185;28;20252;-60
2023/12/14 01:43:56;;;;;;;11.75;7.80;;;4.60;99.90;;;;;;5072914;28;20255;-60
2023/12/14 01:46:24;;;;;;;9.57;7.32;;;4.60;99.90;;;;;;5073390;28;20209;-60
2023/12/14 01:48:52;;;;;;;11.75;8.10;;;4.50;99.90;;;;;;5073026;28;20674;-60
2023/12/14 01:51:20;;;;;;;10.93;7.30;;;4.50;99.90;;;;;;5076364;23;20592;-54
2023/12/14 01:53:48;;;;;;;11.38;7.63;;;4.50;99.90;;;;;;5053200;28;20214;-56
2023/12/14 01:56:18;;;;;;;11.05;7.75;;;4.50;99.90;;;;;;5053343;28;20237;-54
2023/12/14 01:58:46;;;;;;;9.52;6.47;;;4.50;99.90;;;;;;5053462;28;20206;-53
2023/12/14 02:01:17;;;;;;;12.90;6.70;;;4.50;99.90;;;;;;5053356;28;20226;-54
2023/12/14 02:03:45;;;;;;;11.52;7.00;;;4.40;99.90;;;;;;5053043;28;20256;-54
2023/12/14 02:06:13;;;;;;;10.65;6.95;;;4.40;99.90;;;;;;5053224;28;20574;-53
2023/12/14 02:08:41;;;;;;;13.13;8.35;;;4.40;99.90;;;;;;5052909;28;20651;-56
2023/12/14 02:11:09;;;;;;;18.88;8.32;;;4.40;99.90;;;;;;5053236;28;20250;-54
2023/12/14 02:13:39;;;;;;;15.68;8.00;;;4.40;99.90;;;;;;5051973;28;20229;-59
2023/12/14 02:16:07;;;;;;;14.93;7.65;;;4.40;99.90;;;;;;5053167;28;20209;-57
2023/12/14 02:18:35;;;;;;;13.95;8.27;;;4.40;99.90;;;;;;5052920;28;20238;-56
2023/12/14 02:21:04;;;;;;;15.23;8.60;;;4.30;99.90;;;;;;5052789;28;20313;-55
2023/12/14 02:23:33;;;;;;;10.88;7.78;;;4.40;99.90;;;;;;5052529;28;20616;-55
2023/12/14 02:26:01;;;;;;;10.68;7.55;;;4.40;99.90;;;;;;5052887;28;20202;-59
2023/12/14 02:28:29;;;;;;;11.65;7.00;;;4.40;99.90;;;;;;5052691;28;20202;-59
2023/12/14 02:30:57;;;;;;;12.30;7.00;;;4.40;99.90;;;;;;5050420;28;20226;-59
2023/12/14 02:33:25;;;;;;;10.52;6.72;;;4.40;99.90;;;;;;5052384;28;20563;-56
2023/12/14 02:35:53;;;;;;;11.70;6.45;;;4.40;99.90;;;;;;5052698;28;20297;-57
2023/12/14 02:38:21;;;;;;;13.07;6.78;;;4.40;99.90;;;;;;5052523;28;20256;-54
2023/12/14 02:40:52;;;;;;;10.95;6.57;;;4.40;99.90;;;;;;5052573;28;20237;-59
2023/12/14 02:43:20;;;;;;;9.73;6.38;;;4.40;99.90;;;;;;5052130;28;20198;-61
2023/12/14 02:45:48;;;;;;;9.05;6.22;;;4.50;99.90;;;;;;5052727;28;20213;-60
2023/12/14 02:48:16;;;;;;;11.52;6.65;;;4.50;99.90;;;;;;5052141;28;20300;-60
2023/12/14 02:50:44;;;;;;;10.65;6.47;;;4.50;99.90;;;;;;5052232;28;20237;-55
2023/12/14 02:53:11;;;;;;;10.45;5.97;;;4.50;99.90;;;;;;5052007;28;20240;-59
2023/12/14 02:55:40;;;;;;;12.15;5.57;;;4.50;99.90;;;;;;5052197;28;20664;-56
2023/12/14 02:58:08;;;;;;;7.05;5.50;;;4.60;99.90;;;;;;5052160;28;20224;-57
2023/12/14 03:00:36;;;;;;;7.55;5.93;;;4.60;99.90;;;;;;5052437;28;20316;-59
2023/12/14 03:03:04;;;;;;;6.88;6.05;;;4.60;99.90;;;;;;5052123;28;20210;-59
2023/12/14 03:05:32;;;;;;;8.57;6.75;;;4.60;99.90;;;;;;5052429;28;20280;-58
2023/12/14 03:07:59;;;;;;;12.13;6.22;;;4.70;99.90;;;;;;5051693;28;20691;-60
2023/12/14 03:10:27;;;;;;;8.07;6.25;;;4.70;99.90;;;;;;5051945;28;20589;-60
2023/12/14 03:12:55;;;;;;;8.90;5.93;;;4.70;99.90;;;;;;5052048;28;20271;-60
2023/12/14 03:15:24;;;;;;;8.00;6.38;;;4.70;99.90;;;;;;5052000;28;20214;-58
2023/12/14 03:17:52;;;;;;;13.52;6.13;;;4.70;99.90;;;;;;5051734;28;20201;-55
2023/12/14 03:20:20;;;;;;;10.50;7.07;;;4.70;99.90;;;;;;5051845;28;20711;-58
2023/12/14 03:22:48;;;;;;;10.15;6.75;;;4.70;99.90;;;;;;5051335;28;20230;-55
2023/12/14 03:25:16;;;;;;;9.07;7.13;;;4.80;99.90;;;;;;5051691;28;20214;-58
2023/12/14 03:27:47;;;;;;;10.80;7.68;;;4.80;99.90;;;;;;5051782;28;20671;-55
2023/12/14 03:30:15;;;;;;;11.63;7.13;;;4.80;99.90;;;;;;5051689;28;20299;-55
2023/12/14 03:32:44;;;;;;;12.38;7.50;;;4.80;99.90;;;;;;5051761;28;20237;-58
2023/12/14 03:35:12;;;;;;;12.20;7.95;;;4.80;99.90;;;;;;5051298;28;20671;-58
2023/12/14 03:37:40;;;;;;;11.27;7.88;;;4.80;99.90;;;;;;5051457;28;20210;-55
2023/12/14 03:40:08;;;;;;;14.30;8.30;;;4.90;99.90;;;;;;5051190;28;20205;-57
2023/12/14 03:42:36;;;;;;;16.02;7.97;;;4.90;99.90;;;;;;5051638;28;20232;-59
2023/12/14 03:45:05;;;;;;;11.85;7.93;;;4.90;99.90;;;;;;5051120;28;20709;-57
2023/12/14 03:47:33;;;;;;;9.55;6.95;;;4.90;99.90;;;;;;5051546;28;20209;-59
2023/12/14 03:50:02;;;;;;;14.25;7.20;;;4.90;99.90;;;;;;5050893;28;20205;-57
2023/12/14 03:52:31;;;;;;;18.38;8.15;;;4.90;99.90;;;;;;5051709;28;20206;-55
2023/12/14 03:54:59;;;;;;;13.48;7.50;;;4.90;99.90;;;;;;5051106;28;20582;-54
2023/12/14 03:57:27;;;;;;;13.00;7.75;;;4.90;99.90;;;;;;5050712;28;20209;-58
2023/12/14 03:59:55;;;;;;;9.88;6.88;;;4.90;99.90;;;;;;5050959;28;20905;-57
2023/12/14 04:02:22;;;;;;;11.90;6.93;;;4.90;99.90;;;;;;5043167;28;20650;-60
2023/12/14 04:04:50;;;;;;;16.17;7.53;;;5.00;99.90;;;;;;5051117;28;20296;-54
2023/12/14 04:07:20;;;;;;;12.20;7.22;;;5.00;99.90;;;;;;5051345;28;20206;-53
2023/12/14 04:09:48;;;;;;;13.32;7.00;;;4.90;99.90;;;;;;5050948;28;20659;-59
2023/12/14 04:12:16;;;;;;;9.23;6.80;;;4.90;99.90;;;;;;5051171;28;20258;-60
2023/12/14 04:14:44;;;;;;;11.98;6.95;;;4.90;99.90;;;;;;5050712;28;20295;-54
2023/12/14 04:17:12;;;;;;;14.68;6.57;;;5.00;99.90;;;;;;5051094;28;20271;-56
2023/12/14 04:19:40;;;;;;;13.93;7.22;;;5.00;99.90;;;;;;5049818;28;20198;-59
2023/12/14 04:22:08;;;;;;;11.45;6.78;;;5.00;99.90;;;;;;5050978;28;20226;-55
2023/12/14 04:24:37;;;;;;;12.73;6.50;;;5.00;99.90;;;;;;5050786;28;20293;-54
2023/12/14 04:27:05;;;;;;;9.60;6.55;;;5.00;99.90;;;;;;5051076;28;20209;-54
2023/12/14 04:29:33;;;;;;;12.52;6.70;;;5.10;99.90;;;;;;5050786;28;20275;-54
2023/12/14 04:32:01;;;;;;;11.25;6.65;;;5.10;99.90;;;;;;5051210;28;20292;-55
2023/12/14 04:34:29;;;;;;;14.32;6.85;;;5.10;99.90;;;;;;5050700;28;20697;-59
2023/12/14 04:36:57;;;;;;;15.85;6.18;;;5.10;99.90;;;;;;5054310;28;20233;-59
2023/12/14 04:39:25;;;;;;;14.45;6.78;;;5.10;99.90;;;;;;5054607;28;20288;-55
2023/12/14 04:41:54;;;;;;;10.25;6.35;;;5.10;99.90;;;;;;5054751;28;20309;-59
2023/12/14 04:44:22;;;;;;;12.77;6.43;;;5.10;99.90;;;;;;5054268;28;20272;-54
2023/12/14 04:46:50;;;;;;;8.13;5.85;;;5.10;99.90;;;;;;5054947;28;20289;-59
2023/12/14 04:49:19;;;;;;;11.70;6.63;;;5.10;99.90;;;;;;5054927;28;20213;-57
2023/12/14 04:51:47;;;;;;;10.32;5.95;;;5.10;99.90;;;;;;5054512;28;20229;-56
2023/12/14 04:54:15;;;;;;;9.02;6.28;;;5.10;99.90;;;;;;5054324;28;20244;-55
2023/12/14 04:56:44;;;;;;;10.05;6.53;;;5.10;99.90;;;;;;5054427;28;20206;-60
2023/12/14 04:59:13;;;;;;;11.15;6.93;;;5.10;99.90;;;;;;5054416;28;20214;-59
2023/12/14 05:01:41;;;;;;;11.65;6.53;;;5.20;99.90;;;;;;5054678;28;20230;-60
2023/12/14 05:04:09;;;;;;;10.05;6.28;;;5.10;99.90;;;;;;5054101;28;20560;-59
2023/12/14 05:06:38;;;;;;;9.82;6.20;;;5.10;99.90;;;;;;5053314;28;20209;-61
2023/12/14 05:09:07;;;;;;;7.93;6.15;;;5.10;99.90;;;;;;5053234;28;20210;-57
2023/12/14 05:11:35;;;;;;;12.30;6.72;;;5.10;99.90;;;;;;5049442;28;20230;-54
2023/12/14 05:14:03;;;;;;;12.93;6.38;;;5.10;99.90;;;;;;5053414;28;20285;-55
2023/12/14 05:16:32;;;;;;;11.38;6.15;;;5.10;99.90;;;;;;5049706;28;20656;-55
2023/12/14 05:19:00;;;;;;;9.00;5.95;;;5.10;99.90;;;;;;5053780;28;20202;-60
2023/12/14 05:21:28;;;;;;;10.52;6.18;;;5.20;99.90;;;;;;5053983;28;20225;-55
2023/12/14 05:23:56;;;;;;;13.25;6.53;;;5.20;99.90;;;;;;5052541;28;20225;-59
2023/12/14 05:26:24;;;;;;;11.13;7.45;;;5.20;99.90;;;;;;5051394;28;20725;-58
2023/12/14 05:28:52;;;;;;;14.00;6.35;;;5.20;99.90;;;;;;5048736;28;20202;-59
2023/12/14 05:31:21;;;;;;;9.82;6.40;;;5.20;99.90;;;;;;5049383;28;20310;-59
2023/12/14 05:33:50;;;;;;;10.15;5.97;;;5.20;99.90;;;;;;5051951;28;20774;-57
2023/12/14 05:36:18;;;;;;;9.60;6.15;;;5.20;99.90;;;;;;5053518;28;20670;-55
2023/12/14 05:38:46;;;;;;;12.63;7.28;;;5.20;99.90;;;;;;5053851;28;20198;-59
2023/12/14 05:41:15;;;;;;;12.40;6.60;;;5.20;99.90;;;;;;5053720;28;20761;-59
2023/12/14 05:43:43;;;;;;;13.32;6.85;;;5.20;99.90;;;;;;5053262;28;20220;-57
2023/12/14 05:46:20;;;;;;;14.05;6.40;;;5.20;99.90;;;;;;5053179;28;20213;-53
2023/12/14 05:48:50;;;;;;;13.73;6.32;;;5.20;99.90;;;;;;5053220;28;20229;-58
2023/12/14 05:51:27;;;;;;;11.73;6.30;;;5.20;99.90;;;;;;5053390;28;20233;-55
2023/12/14 05:53:55;;;;;;;10.43;6.03;;;5.20;99.90;;;;;;5053161;28;20282;-58
2023/12/14 05:56:23;;;;;;;11.52;5.95;;;5.30;99.90;;;;;;5053452;28;20931;-58
2023/12/14 05:58:51;;;;;;;9.50;6.30;;;5.30;99.90;;;;;;5053227;28;20285;-53
2023/12/14 06:01:19;;;;;;;8.63;5.82;;;5.30;99.90;;;;;;5053235;28;20228;-58
2023/12/14 06:03:47;;;;;;;8.80;5.70;;;5.30;99.90;;;;;;5053191;28;20198;-58
2023/12/14 06:06:16;;;;;;;10.18;5.55;;;5.30;99.90;;;;;;5053457;28;20202;-59
2023/12/14 06:08:44;;;;;;;15.75;6.32;;;5.30;99.90;;;;;;5053062;28;20202;-56
2023/12/14 06:11:12;;;;;;;11.75;6.28;;;5.40;99.90;;;;;;5053124;28;20222;-60
2023/12/14 06:13:40;;;;;;;12.88;6.28;;;5.40;99.90;;;;;;5052622;28;20222;-59
2023/12/14 06:16:12;;;;;;;12.25;6.78;;;5.40;99.90;;;;;;5052775;28;20205;-59
2023/12/14 06:18:43;;;;;;;14.23;6.70;;;5.40;99.90;;;;;;5052999;28;20667;-58
2023/12/14 06:21:12;;;;;;;8.95;6.68;;;5.40;99.90;;;;;;5052844;28;20222;-58
2023/12/14 06:23:41;;;;;;;11.55;6.28;;;5.40;99.90;;;;;;5052650;28;20202;-53
2023/12/14 06:26:09;;;;;;;11.40;6.07;;;5.50;99.90;;;;;;5052313;28;20305;-55
2023/12/14 06:28:37;;;;;;;8.63;6.25;;;5.50;99.90;;;;;;5051584;28;20230;-56
2023/12/14 06:31:05;;;;;;;9.80;6.78;;;5.50;99.90;;;;;;5051488;28;20303;-56
2023/12/14 06:33:33;;;;;;;9.95;5.90;;;5.50;99.90;;;;;;5052185;28;20229;-55
2023/12/14 06:36:04;;;;;;;7.95;5.63;;;5.50;99.90;;;;;;5052704;28;20221;-55
2023/12/14 06:38:32;;;;;;;9.20;6.30;;;5.50;99.90;;;;;;5044546;28;20297;-60
2023/12/14 06:41:02;;;;;;;11.20;7.13;;;5.60;99.90;;;;;;5052565;28;20308;-60
2023/12/14 06:43:30;;;;;;;11.27;6.93;;;5.60;99.90;;;;;;5052596;28;20212;-58
2023/12/14 06:45:58;;;;;;;8.65;6.60;;;5.60;99.90;;;;;;5052520;28;20301;-58
2023/12/14 06:48:26;;;;;;;10.63;7.43;;;5.60;99.90;;;;;;5052166;28;20214;-53
2023/12/14 06:50:54;;;;;;;9.38;7.22;;;5.70;99.90;;;;;;5052199;28;20717;-53
2023/12/14 06:53:23;;;;;;;9.98;7.15;;;5.70;99.90;;;;;;5051751;28;20230;-58
2023/12/14 06:55:50;;;;;;;10.70;7.50;;;5.70;99.90;;;;;;5052727;28;20210;-54
2023/12/14 06:58:20;;;;;;;13.88;7.63;;;5.80;99.90;;;;;;5051393;28;20214;-53
2023/12/14 07:00:48;;;;;;;12.85;7.32;;;5.80;99.90;;;;;;5052325;28;20337;-59
2023/12/14 07:03:15;;;;;;;9.13;6.85;;;5.80;99.90;;;;;;5051895;28;20209;-57
2023/12/14 07:05:45;;;;;;;11.20;7.72;;;5.80;99.90;;;;;;5051780;28;20665;-57
2023/12/14 07:08:13;;;;;;;10.38;6.88;;;5.80;99.90;;;;;;5052066;28;20263;-57
2023/12/14 07:10:42;;;;;;;11.80;6.70;;;5.80;99.90;;;;;;5052141;28;20225;-57
2023/12/14 07:13:10;;;;;;;7.82;5.88;;;6.20;99.90;;;;;;5052024;28;20288;-56
2023/12/14 07:15:39;;;;;;;9.00;6.57;;;6.30;99.90;;;;;;5052184;28;20230;-59
2023/12/14 07:18:07;;;;;;;9.73;6.20;;;6.20;99.90;;;;;;5051822;28;20300;-57
2023/12/14 07:20:35;;;;;;;8.40;6.18;;;6.20;99.90;;;;;;5051472;28;20229;-59
2023/12/14 07:23:03;;;;;;;11.15;6.20;;;6.10;99.90;;;;;;5051967;28;20238;-58
2023/12/14 07:25:31;;;;;;;11.35;6.32;;;6.10;99.90;;;;;;5047670;28;20206;-56
2023/12/14 07:27:58;;;;;;;9.00;6.18;;;6.00;99.90;;;;;;5048528;28;20293;-56
2023/12/14 07:30:26;;;;;;;10.40;6.85;;;6.00;99.90;;;;;;5041220;28;20237;-56
2023/12/14 07:32:56;;;;;;;14.40;7.65;;;6.00;99.90;;;;;;5047239;28;20288;-56
2023/12/14 07:35:24;;;;;;;13.70;8.20;;;6.30;99.90;;;;;;5050062;28;20313;-55
2023/12/14 07:37:52;;;;;;;11.05;8.48;;;6.40;99.90;;;;;;5049372;28;20202;-58
2023/12/14 07:40:20;;;;;;;12.80;8.57;;;6.30;99.90;;;;;;5049246;28;20279;-59
2023/12/14 07:42:48;;;;;;;14.65;8.85;;;6.30;99.90;;;;;;5051493;28;20198;-57
2023/12/14 07:45:16;;;;;;;15.57;9.07;;;6.30;99.90;;;;;;5050573;28;20194;-57
2023/12/14 07:47:45;;;;;;;18.13;8.50;;;6.20;99.90;;;;;;5051250;28;20411;-58
2023/12/14 07:50:14;;;;;;;9.93;7.57;;;6.20;99.90;;;;;;5050546;28;20229;-56
2023/12/14 07:52:42;;;;;;;15.88;8.05;;;6.20;99.90;;;;;;5051237;28;20202;-56
2023/12/14 07:55:10;;;;;;;10.10;7.80;;;6.20;99.90;;;;;;5050636;28;20232;-57
2023/12/14 07:57:38;;;;;;;9.20;7.82;;;6.20;99.90;;;;;;5051028;28;20206;-57
2023/12/14 08:00:08;;;;;;;10.70;8.43;;;6.20;99.90;;;;;;5050582;28;20237;-57
2023/12/14 08:02:36;;;;;;;13.40;7.80;;;6.20;99.90;;;;;;5051415;28;20201;-58
2023/12/14 08:05:05;;;;;;;8.68;7.03;;;6.20;99.90;;;;;;5051189;28;20194;-56
2023/12/14 08:07:34;;;;;;;10.15;7.90;;;6.20;99.90;;;;;;5051510;28;20206;-59
2023/12/14 08:10:03;;;;;;;13.32;8.27;;;6.20;99.90;;;;;;5052786;28;20233;-59
2023/12/14 08:12:30;;;;;;;14.63;8.70;;;6.30;99.90;;;;;;5055049;28;20217;-59
2023/12/14 08:14:58;;;;;;;11.73;6.90;;;6.30;99.90;;;;;;5055154;28;20704;-58
2023/12/14 08:17:27;;;;;;;12.40;8.45;;;6.30;99.90;;;;;;5055450;28;20218;-60
2023/12/14 08:19:56;;;;;;;12.45;8.70;;;6.30;99.90;;;;;;5055190;28;20202;-59
2023/12/14 08:22:24;;;;;;;11.80;7.47;;;6.30;99.90;;;;;;5055316;28;20205;-59
2023/12/14 08:24:53;;;;;;;8.63;7.40;;;6.40;99.90;;;;;;5054906;28;20222;-59
2023/12/14 08:27:21;;;;;;;10.20;7.57;;;6.40;99.90;;;;;;5055075;28;20267;-59
2023/12/14 08:29:49;;;;;;;14.90;7.60;;;6.40;99.90;;;;;;5055097;28;20301;-58
2023/12/14 08:32:17;;;;;;;14.80;7.50;;;6.40;99.90;;;;;;5054108;28;20229;-58
2023/12/14 08:34:45;;;;;;;12.18;7.18;;;6.50;99.90;;;;;;5050510;28;20228;-59
2023/12/14 08:37:13;;;;;;;11.13;7.30;;;6.50;99.90;;;;;;5053847;28;20202;-59
2023/12/14 08:39:42;;;;;;;11.25;7.32;;;6.50;99.90;;;;;;5053512;28;20589;-60
2023/12/14 08:42:11;;;;;;;15.70;8.02;;;6.60;99.90;;;;;;5055064;28;20308;-60
2023/12/14 08:44:39;;;;;;;16.88;8.68;;;6.60;99.90;;;;;;5046745;28;20298;-59
2023/12/14 08:47:08;;;;;;;11.13;7.32;;;6.70;99.90;;;;;;5054866;28;20238;-59
2023/12/14 08:49:37;;;;;;;11.75;7.32;;;6.80;99.90;;;;;;5054677;28;20261;-60
2023/12/14 08:52:05;;;;;;;11.60;8.35;;;6.80;99.90;;;;;;5054599;28;20230;-60
2023/12/14 08:54:33;;;;;;;14.60;8.63;;;6.90;99.90;;;;;;5054572;28;20230;-60
2023/12/14 08:57:02;;;;;;;13.70;9.32;;;6.90;99.90;;;;;;5055540;28;20202;-59
2023/12/14 08:59:31;;;;;;;17.25;9.60;;;6.90;99.90;;;;;;5054610;28;20586;-58
2023/12/14 09:01:59;;;;;;;22.55;11.25;;;7.00;99.90;;;;;;5054538;28;20674;-59
2023/12/14 09:04:26;;;;;;;17.08;12.23;;;7.00;99.90;;;;;;5054057;28;20257;-59
2023/12/14 09:06:54;;;;;;;28.90;10.70;;;7.10;99.90;;;;;;5054366;28;20241;-58
2023/12/14 09:09:22;;;;;;;17.63;9.93;;;7.10;99.90;;;;;;5054068;28;20643;-59
2023/12/14 09:11:50;;;;;;;23.40;11.25;;;7.20;99.90;;;;;;5054447;28;20233;-59
2023/12/14 09:14:22;;;;;;;26.30;13.45;;;7.20;99.90;;;;;;5052447;28;20234;-59
2023/12/14 09:16:51;;;;;;;23.15;13.75;;;7.30;99.90;;;;;;5054202;28;20210;-58
2023/12/14 09:19:19;;;;;;;19.98;13.10;;;7.40;99.90;;;;;;5049518;28;20216;-59
2023/12/14 09:21:47;;;;;;;18.75;11.35;;;7.40;99.90;;;;;;5053074;28;20257;-58
2023/12/14 09:24:15;;;;;;;17.80;10.55;;;7.50;99.90;;;;;;5045806;28;20264;-57
2023/12/14 09:26:43;;;;;;;16.50;8.85;;;7.60;99.90;;;;;;5054080;28;20209;-58
2023/12/14 09:29:11;;;;;;;10.30;7.70;;;7.70;99.90;;;;;;5053626;28;20615;-58
2023/12/14 09:31:42;;;;;;;10.82;7.82;;;7.80;99.90;;;;;;5053664;28;20706;-58
2023/12/14 09:34:11;;;;;;;11.30;6.60;;;7.90;99.90;;;;;;5053585;28;20213;-58
2023/12/14 09:36:39;;;;;;;10.65;7.68;;;8.00;99.90;;;;;;5053953;28;20260;-58
2023/12/14 09:39:10;;;;;;;13.98;8.73;;;8.10;99.90;;;;;;5053546;28;20198;-58
2023/12/14 09:41:38;;;;;;;10.13;7.13;;;8.10;99.90;;;;;;5053846;28;20260;-57
2023/12/14 09:44:07;;;;;;;12.07;8.73;;;8.10;99.90;;;;;;5053170;28;20206;-58
2023/12/14 09:46:37;;;;;;;10.35;8.52;;;8.20;99.90;;;;;;5053715;28;20201;-58
2023/12/14 09:49:05;;;;;;;10.52;7.40;;;8.20;99.90;;;;;;5053455;28;20206;-58
2023/12/14 09:51:37;;;;;;;8.98;7.25;;;8.20;99.90;;;;;;5053186;28;20237;-58
2023/12/14 09:54:05;;;;;;;12.15;9.45;;;8.20;99.90;;;;;;5053375;28;20234;-58
2023/12/14 09:56:33;;;;;;;11.85;8.30;;;8.20;99.90;;;;;;5053338;28;20271;-57
2023/12/14 09:59:02;;;;;;;11.98;7.47;;;8.20;99.90;;;;;;5053468;28;20299;-58
2023/12/14 10:01:30;;;;;;;9.07;7.43;;;8.20;99.90;;;;;;5053109;28;20723;-59
2023/12/14 10:04:11;;;;;;;8.88;7.05;;;8.20;99.90;;;;;;5052807;28;20671;-59
2023/12/14 10:06:41;;;;;;;8.88;6.75;;;8.20;99.90;;;;;;5052162;28;20206;-59
2023/12/14 10:09:13;;;;;;;8.98;6.97;;;8.20;99.90;;;;;;5052991;28;20202;-59
2023/12/14 10:11:41;;;;;;;10.43;6.60;;;8.20;99.90;;;;;;5053398;28;20315;-58
2023/12/14 10:14:24;;;;;;;11.05;6.30;;;8.20;99.90;;;;;;5052988;28;20237;-57
2023/12/14 10:16:52;;;;;;;9.27;6.75;;;8.20;99.90;;;;;;5051611;28;20248;-58
2023/12/14 10:19:30;;;;;;;9.15;6.72;;;8.20;99.90;;;;;;5052692;28;20208;-58
2023/12/14 10:22:01;;;;;;;10.00;6.55;;;8.20;99.90;;;;;;5053276;28;20285;-58
2023/12/14 10:24:29;;;;;;;8.32;6.32;;;8.10;99.90;;;;;;5052736;28;20271;-58
2023/12/14 10:26:57;;;;;;;7.97;6.10;;;8.10;99.90;;;;;;5053070;28;20226;-58
2023/12/14 10:29:25;;;;;;;10.35;7.15;;;8.10;99.90;;;;;;5052714;28;20341;-58
2023/12/14 10:31:53;;;;;;;7.25;5.95;;;8.10;99.90;;;;;;5052848;28;20287;-57
2023/12/14 10:34:21;;;;;;;8.90;7.05;;;8.10;99.90;;;;;;5051239;28;20659;-58
2023/12/14 10:36:49;;;;;;;12.60;7.70;;;8.00;99.90;;;;;;5052849;28;20309;-58
2023/12/14 10:39:18;;;;;;;5.88;5.22;;;8.00;99.90;;;;;;5052618;28;20226;-58
2023/12/14 10:41:48;;;;;;;9.43;6.43;;;8.10;99.90;;;;;;5052929;28;20272;-57
2023/12/14 10:44:25;;;;;;;11.27;7.32;;;8.10;99.90;;;;;;5052134;28;20259;-58
2023/12/14 10:47:15;;;;;;;8.38;6.63;;;8.10;99.90;;;;;;5052679;28;20209;-59
2023/12/14 10:49:44;;;;;;;6.70;5.35;;;8.20;99.90;;;;;;5052392;28;20294;-58
2023/12/14 10:52:12;;;;;;;8.77;6.55;;;8.20;99.90;;;;;;5052334;28;20230;-58
2023/12/14 10:54:41;;;;;;;8.43;5.80;;;8.20;99.90;;;;;;5052067;28;20210;-58
2023/12/14 10:57:09;;;;;;;6.97;5.85;;;8.20;99.90;;;;;;5052207;28;20652;-59
2023/12/14 10:59:37;;;;;;;6.93;5.70;;;8.30;99.90;;;;;;5051234;28;20296;-58
2023/12/14 11:02:09;;;;;;;6.05;5.50;;;8.30;99.90;;;;;;5052282;28;20695;-58
2023/12/14 11:04:55;;;;;;;6.85;4.95;;;8.40;99.90;;;;;;5051959;28;20213;-58
2023/12/14 11:07:43;;;;;;;6.20;5.30;;;8.40;99.90;;;;;;5052114;28;20230;-58
2023/12/14 11:10:13;;;;;;;5.70;5.10;;;8.50;99.90;;;;;;5051129;28;20228;-58
2023/12/14 11:12:52;;;;;;;7.47;5.53;;;8.50;99.90;;;;;;5051949;28;20670;-59
2023/12/14 11:15:20;;;;;;;5.03;4.57;;;8.50;99.90;;;;;;5048049;28;20217;-58
2023/12/14 11:18:21;;;;;;;5.93;5.32;;;8.50;99.90;;;;;;5051986;28;20206;-59
2023/12/14 11:20:50;;;;;;;8.23;6.15;;;8.50;99.90;;;;;;5052048;28;20226;-59
2023/12/14 11:23:19;;;;;;;5.35;4.85;;;8.50;99.90;;;;;;5052121;28;20208;-59
2023/12/14 11:25:51;;;;;;;6.80;4.97;;;8.50;99.90;;;;;;5039502;28;20195;-59
2023/12/14 11:28:26;;;;;;;9.52;6.63;;;8.50;99.90;;;;;;5048798;28;20213;-59
2023/12/14 11:30:55;;;;;;;11.82;8.00;;;8.50;99.90;;;;;;5046586;28;20266;-59
2023/12/14 11:33:24;;;;;;;7.63;6.25;;;8.50;99.90;;;;;;5051053;28;20210;-59
2023/12/14 11:35:53;;;;;;;11.23;8.68;;;8.50;99.90;;;;;;5051326;28;20820;-59
2023/12/14 11:38:23;;;;;;;21.63;13.32;;;8.50;99.90;;;;;;5051822;28;20272;-58
2023/12/14 11:40:53;;;;;;;12.07;8.95;;;8.50;99.90;;;;;;5048682;28;20225;-58
2023/12/14 11:43:21;;;;;;;8.95;7.05;;;8.50;99.90;;;;;;5051212;28;20214;-58
2023/12/14 11:45:49;;;;;;;9.77;7.50;;;8.50;99.90;;;;;;5050568;28;20217;-58
2023/12/14 11:48:19;;;;;;;9.35;6.82;;;8.50;99.90;;;;;;5051050;28;20229;-58
2023/12/14 11:50:47;;;;;;;9.85;7.97;;;8.50;99.90;;;;;;5048965;28;20738;-58
2023/12/14 11:53:15;;;;;;;9.30;6.63;;;8.50;99.90;;;;;;5050956;28;20202;-58
2023/12/14 11:55:45;;;;;;;8.00;7.18;;;8.50;99.90;;;;;;5051240;28;20226;-58
2023/12/14 11:58:14;;;;;;;8.10;7.25;;;8.50;99.90;;;;;;5051345;28;20202;-57
2023/12/14 12:00:42;;;;;;;11.27;7.80;;;8.50;99.90;;;;;;5051200;28;20221;-58
2023/12/14 12:03:12;;;;;;;10.27;6.05;;;8.50;99.90;;;;;;5050355;28;20576;-58
2023/12/14 12:05:40;;;;;;;8.05;6.40;;;8.50;99.90;;;;;;5050524;28;20788;-58
2023/12/14 12:08:09;;;;;;;8.07;6.05;;;8.50;99.90;;;;;;5051179;28;20201;-58
2023/12/14 12:10:37;;;;;;;10.95;8.32;;;8.50;99.90;;;;;;5050230;28;20261;-57
2023/12/14 12:13:06;;;;;;;8.20;7.00;;;8.50;99.90;;;;;;5051422;28;20568;-58
2023/12/14 12:15:36;;;;;;;8.40;6.72;;;8.50;99.90;;;;;;5051208;28;20264;-58
2023/12/14 12:18:06;;;;;;;10.23;7.65;;;8.50;99.90;;;;;;5051143;28;20202;-58
2023/12/14 12:20:34;;;;;;;11.57;9.00;;;8.50;99.90;;;;;;5050828;28;20237;-57
2023/12/14 12:23:03;;;;;;;17.02;11.35;;;8.50;99.90;;;;;;5051547;28;20248;-58
2023/12/14 12:25:31;;;;;;;11.93;9.05;;;8.50;99.90;;;;;;5050908;28;20212;-58
2023/12/14 12:27:59;;;;;;;9.10;7.03;;;8.50;99.90;;;;;;5050656;28;20252;-58
2023/12/14 12:30:27;;;;;;;9.68;7.78;;;8.50;99.90;;;;;;5050627;28;20668;-57
2023/12/14 12:32:56;;;;;;;21.05;10.88;;;8.60;99.90;;;;;;5051157;28;20220;-58
2023/12/14 12:35:25;;;;;;;13.80;8.43;;;8.60;99.90;;;;;;5050979;28;20209;-58
2023/12/14 12:37:54;;;;;;;12.70;8.02;;;8.60;99.90;;;;;;5050782;28;20222;-58
2023/12/14 12:40:22;;;;;;;11.00;7.25;;;8.60;99.90;;;;;;5050697;28;20237;-58
2023/12/14 12:42:50;;;;;;;18.13;11.52;;;8.60;99.90;;;;;;5051081;28;20634;-57
2023/12/14 12:45:18;;;;;;;8.23;7.00;;;8.60;99.90;;;;;;5050606;28;20198;-58
2023/12/14 12:47:46;;;;;;;6.85;5.90;;;8.60;99.90;;;;;;5051043;28;20336;-58
2023/12/14 12:50:16;;;;;;;6.32;5.18;;;8.60;99.90;;;;;;5050766;28;20230;-58
2023/12/14 12:52:45;;;;;;;6.40;5.50;;;8.60;99.90;;;;;;5051078;28;20221;-58
2023/12/14 12:55:13;;;;;;;5.80;5.18;;;8.60;99.90;;;;;;5050707;28;20615;-58
2023/12/14 12:57:42;;;;;;;6.97;6.13;;;8.60;99.90;;;;;;5053256;28;20257;-58